createdAt,value
2019-04-01T00:03:33.727Z,3.71
2019-04-01T00:08:39.752Z,3.71
2019-04-01T00:13:45.723Z,3.68
2019-04-01T00:19:02.512Z,3.58
2019-04-01T00:23:57.294Z,3.39
2019-04-01T00:29:03.264Z,3.57
2019-04-01T00:34:09.227Z,3.47
2019-04-01T00:39:15.176Z,3.62
2019-04-01T00:44:21.146Z,3.46
2019-04-01T00:49:27.123Z,3.67
2019-04-01T00:54:33.071Z,3.28
2019-04-01T00:59:39.041Z,3.30
2019-04-01T01:04:44.994Z,3.39
2019-04-01T01:09:50.971Z,3.32
2019-04-01T01:14:56.943Z,3.31
2019-04-01T01:20:02.937Z,2.99
2019-04-01T01:25:08.899Z,3.27
2019-04-01T01:30:14.864Z,3.70
2019-04-01T01:35:20.859Z,3.58
2019-04-01T01:40:26.801Z,3.25
2019-04-01T01:45:32.756Z,3.44
2019-04-01T01:50:38.711Z,3.49
2019-04-01T01:55:44.659Z,3.25
2019-04-01T02:00:50.638Z,3.57
2019-04-01T02:05:56.595Z,3.34
2019-04-01T02:11:02.550Z,3.47
2019-04-01T02:16:08.502Z,3.29
2019-04-01T02:21:14.464Z,3.20
2019-04-01T02:26:20.433Z,3.11
2019-04-01T02:31:26.390Z,3.09
2019-04-01T02:36:32.356Z,3.31
2019-04-01T02:41:38.306Z,3.10
2019-04-01T02:46:44.281Z,2.94
2019-04-01T02:51:50.301Z,3.29
2019-04-01T02:56:56.252Z,3.06
2019-04-01T03:02:02.218Z,2.97
2019-04-01T03:07:08.235Z,2.81
2019-04-01T03:12:14.221Z,3.03
2019-04-01T03:17:20.237Z,3.01
2019-04-01T03:22:26.209Z,4.14
2019-04-01T03:27:32.164Z,2.95
2019-04-01T03:32:44.291Z,3.28
2019-04-01T03:37:43.696Z,3.75
2019-04-01T03:42:49.700Z,2.99
2019-04-01T03:47:55.731Z,2.98
2019-04-01T03:53:01.690Z,3.26
2019-04-01T03:58:07.698Z,3.01
2019-04-01T04:03:13.654Z,2.91
2019-04-01T04:08:19.602Z,2.91
2019-04-01T04:13:25.641Z,3.15
2019-04-01T04:18:31.687Z,2.96
2019-04-01T04:23:37.654Z,2.79
2019-04-01T04:28:43.629Z,3.19
2019-04-01T04:33:49.594Z,3.04
2019-04-01T04:38:55.581Z,2.91
2019-04-01T04:44:01.739Z,3.11
2019-04-01T04:49:07.715Z,2.90
2019-04-01T04:54:13.666Z,3.11
2019-04-01T04:59:19.668Z,2.93
2019-04-01T05:04:25.635Z,4.36
2019-04-01T05:09:31.620Z,2.83
2019-04-01T05:14:37.582Z,3.27
2019-04-01T05:19:43.575Z,3.40
2019-04-01T05:24:49.539Z,3.80
2019-04-01T05:29:55.538Z,3.32
2019-04-01T05:35:01.638Z,3.42
2019-04-01T05:40:07.579Z,3.63
2019-04-01T05:45:13.517Z,3.10
2019-04-01T05:50:19.458Z,3.83
2019-04-01T05:55:25.473Z,3.11
2019-04-01T06:00:31.583Z,3.22
2019-04-01T06:05:37.548Z,3.30
2019-04-01T06:10:43.529Z,3.44
2019-04-01T06:15:49.642Z,3.39
2019-04-01T06:20:55.592Z,3.18
2019-04-01T06:26:01.708Z,3.42
2019-04-01T06:31:07.692Z,3.74
2019-04-01T06:36:13.648Z,3.76
2019-04-01T06:41:19.618Z,4.01
2019-04-01T06:46:25.600Z,4.27
2019-04-01T06:51:31.587Z,4.44
2019-04-01T06:56:37.590Z,4.79
2019-04-01T07:01:43.703Z,5.82
2019-04-01T07:06:49.652Z,4.88
2019-04-01T07:11:55.611Z,4.36
2019-04-01T07:17:01.558Z,3.67
2019-04-01T07:22:07.538Z,2.87
2019-04-01T07:27:13.501Z,2.90
2019-04-01T07:32:19.538Z,3.01
2019-04-01T07:37:25.513Z,2.73
2019-04-01T07:42:31.478Z,2.78
2019-04-01T07:47:37.439Z,2.63
2019-04-01T07:52:43.405Z,3.16
2019-04-01T07:57:49.371Z,3.06
2019-04-01T08:02:55.327Z,2.85
2019-04-01T08:08:01.292Z,2.92
2019-04-01T08:13:07.277Z,3.10
2019-04-01T08:18:13.253Z,3.04
2019-04-01T08:23:19.184Z,3.14
2019-04-01T08:28:25.197Z,3.10
2019-04-01T08:33:31.248Z,3.55
2019-04-01T08:38:37.253Z,3.24
2019-04-01T08:43:43.276Z,3.23
2019-04-01T08:48:49.252Z,3.38
2019-04-01T08:53:55.206Z,3.62
2019-04-01T08:59:01.189Z,3.53
2019-04-01T09:04:07.147Z,3.95
2019-04-01T09:09:13.165Z,4.24
2019-04-01T09:14:19.139Z,4.49
2019-04-01T09:19:25.265Z,4.41
2019-04-01T09:24:31.265Z,4.62
2019-04-01T09:29:37.505Z,4.43
2019-04-01T09:34:43.499Z,4.43
2019-04-01T09:39:49.483Z,4.33
2019-04-01T09:44:55.453Z,5.00
2019-04-01T09:50:01.427Z,4.65
2019-04-01T09:55:07.419Z,4.90
2019-04-01T10:00:13.400Z,5.13
2019-04-01T10:05:19.368Z,4.92
2019-04-01T10:10:25.344Z,5.19
2019-04-01T10:15:31.323Z,5.77
2019-04-01T10:20:37.319Z,5.51
2019-04-01T10:25:43.281Z,8.59
2019-04-01T10:30:49.261Z,5.85
2019-04-01T10:35:55.246Z,5.86
2019-04-01T10:41:01.272Z,6.06
2019-04-01T10:46:07.251Z,5.69
2019-04-01T10:51:13.295Z,6.82
2019-04-01T10:56:19.329Z,6.68
2019-04-01T11:01:25.302Z,6.59
2019-04-01T11:06:31.370Z,6.24
2019-04-01T11:11:37.273Z,6.34
2019-04-01T11:16:43.244Z,6.54
2019-04-01T11:21:49.306Z,6.93
2019-04-01T11:26:55.303Z,6.86
2019-04-01T11:32:01.323Z,7.32
2019-04-01T11:37:07.317Z,6.92
2019-04-01T11:42:13.265Z,7.29
2019-04-01T11:47:21.980Z,8.05
2019-04-01T11:52:24.731Z,6.83
2019-04-01T11:57:30.686Z,7.16
2019-04-01T12:02:36.783Z,7.48
2019-04-01T12:07:42.776Z,8.27
2019-04-01T12:12:48.789Z,7.61
2019-04-01T12:17:54.814Z,9.30
2019-04-01T12:23:00.812Z,9.27
2019-04-01T12:28:06.797Z,8.68
2019-04-01T12:33:12.795Z,8.65
2019-04-01T12:38:18.775Z,9.97
2019-04-01T12:43:24.795Z,9.29
2019-04-01T12:48:30.790Z,9.34
2019-04-01T12:53:36.770Z,10.31
2019-04-01T12:58:42.769Z,11.25
2019-04-01T13:03:48.913Z,11.03
2019-04-01T13:08:54.809Z,9.97
2019-04-01T13:14:00.811Z,10.18
2019-04-01T13:19:06.783Z,11.41
2019-04-01T13:24:12.991Z,10.24
2019-04-01T13:29:19.320Z,10.72
2019-04-01T13:34:25.393Z,10.41
2019-04-01T13:39:31.412Z,11.03
2019-04-01T13:44:37.775Z,11.32
2019-04-01T13:49:42.876Z,11.57
2019-04-01T13:54:48.914Z,10.98
2019-04-01T13:59:55.047Z,11.58
2019-04-01T14:05:01.085Z,11.42
2019-04-01T14:10:07.089Z,11.02
2019-04-01T14:15:13.070Z,10.88
2019-04-01T14:20:19.061Z,12.14
2019-04-01T14:25:25.161Z,12.11
2019-04-01T14:30:31.145Z,12.21
2019-04-01T14:35:37.157Z,12.13
2019-04-01T14:40:43.240Z,12.09
2019-04-01T14:45:49.228Z,10.09
2019-04-01T14:50:55.219Z,11.83
2019-04-01T14:56:01.305Z,10.67
2019-04-01T15:01:07.267Z,11.46
2019-04-01T15:06:13.307Z,10.89
2019-04-01T15:11:19.273Z,11.38
2019-04-01T15:16:25.313Z,10.53
2019-04-01T15:21:31.357Z,11.04
2019-04-01T15:26:37.403Z,10.70
2019-04-01T15:31:43.518Z,10.09
2019-04-01T15:36:49.542Z,10.26
2019-04-01T15:41:55.550Z,9.48
2019-04-01T15:47:04.353Z,9.54
2019-04-01T15:52:07.226Z,9.76
2019-04-01T15:57:15.220Z,9.67
2019-04-01T16:02:18.771Z,10.66
2019-04-01T16:07:24.732Z,11.17
2019-04-01T16:12:30.723Z,11.79
2019-04-01T16:17:36.697Z,10.83
2019-04-01T16:22:43.772Z,10.69
2019-04-01T16:27:48.177Z,10.27
2019-04-01T16:32:54.214Z,10.10
2019-04-01T16:38:00.270Z,10.84
2019-04-01T16:43:06.285Z,10.27
2019-04-01T16:48:12.270Z,10.79
2019-04-01T16:53:18.363Z,10.55
2019-04-01T16:58:24.350Z,10.76
2019-04-01T17:03:30.390Z,11.23
2019-04-01T17:08:36.398Z,10.04
2019-04-01T17:13:42.411Z,10.23
2019-04-01T17:18:48.567Z,9.62
2019-04-01T17:23:54.536Z,9.62
2019-04-01T17:29:00.557Z,11.73
2019-04-01T17:34:06.686Z,11.44
2019-04-01T17:39:13.303Z,10.86
2019-04-01T17:44:19.304Z,12.66
2019-04-01T17:49:25.331Z,12.63
2019-04-01T17:54:31.438Z,11.48
2019-04-01T17:59:37.403Z,13.78
2019-04-01T18:04:43.386Z,9.80
2019-04-01T18:09:49.367Z,10.03
2019-04-01T18:14:55.413Z,10.19
2019-04-01T18:20:01.402Z,8.65
2019-04-01T18:25:07.450Z,9.18
2019-04-01T18:30:13.478Z,8.16
2019-04-01T18:35:19.504Z,7.71
2019-04-01T18:40:32.467Z,7.04
2019-04-01T18:45:31.029Z,8.10
2019-04-01T18:50:37.041Z,7.26
2019-04-01T18:55:43.017Z,6.85
2019-04-01T19:00:49.083Z,7.36
2019-04-01T19:05:55.097Z,8.06
2019-04-01T19:11:02.550Z,7.90
2019-04-01T19:16:08.003Z,8.65
2019-04-01T19:21:12.122Z,9.22
2019-04-01T19:26:18.110Z,8.25
2019-04-01T19:31:24.177Z,8.38
2019-04-01T19:36:30.378Z,7.81
2019-04-01T19:41:36.222Z,7.58
2019-04-01T19:46:42.231Z,7.86
2019-04-01T19:51:48.377Z,7.65
2019-04-01T19:56:54.387Z,7.22
2019-04-01T20:02:00.385Z,7.52
2019-04-01T20:07:06.421Z,7.76
2019-04-01T20:12:12.493Z,7.08
2019-04-01T20:17:18.543Z,7.27
2019-04-01T20:22:25.925Z,7.73
2019-04-01T20:27:30.103Z,8.21
2019-04-01T20:32:36.139Z,7.56
2019-04-01T20:37:42.284Z,7.51
2019-04-01T20:42:48.157Z,7.27
2019-04-01T20:47:54.161Z,7.27
2019-04-01T20:53:00.186Z,7.07
2019-04-01T20:58:06.151Z,6.55
2019-04-01T21:03:12.153Z,6.69
2019-04-01T21:08:18.131Z,6.67
2019-04-01T21:13:24.153Z,6.81
2019-04-01T21:18:30.156Z,6.35
2019-04-01T21:23:36.389Z,6.47
2019-04-01T21:28:42.131Z,6.49
2019-04-01T21:33:48.121Z,6.99
2019-04-01T21:38:54.142Z,6.28
2019-04-01T21:44:00.112Z,6.18
2019-04-01T21:49:07.160Z,6.52
2019-04-01T21:54:11.650Z,6.32
2019-04-01T21:59:18.063Z,6.39
2019-04-01T22:04:23.097Z,5.69
2019-04-01T22:09:29.100Z,5.80
2019-04-01T22:14:35.106Z,5.16
2019-04-01T22:19:41.189Z,5.02
2019-04-01T22:24:47.174Z,4.66
2019-04-01T22:29:53.136Z,5.12
2019-04-01T22:34:59.118Z,5.03
2019-04-01T22:40:05.093Z,4.86
2019-04-01T22:45:11.053Z,4.86
2019-04-01T22:50:17.054Z,4.67
2019-04-01T22:55:23.048Z,4.81
2019-04-01T23:00:29.053Z,4.20
2019-04-01T23:05:35.050Z,4.64
2019-04-01T23:10:41.005Z,4.67
2019-04-01T23:15:46.961Z,4.76
2019-04-01T23:20:52.924Z,4.71
2019-04-01T23:25:58.914Z,4.46
2019-04-01T23:31:04.935Z,4.56
2019-04-01T23:36:11.325Z,4.66
2019-04-01T23:41:16.522Z,4.75
2019-04-01T23:46:22.477Z,4.74
2019-04-01T23:51:28.446Z,4.66
2019-04-01T23:56:34.536Z,4.86
